createdAt,value
2022-10-04T00:02:29.238Z,38.37
2022-10-04T00:05:45.919Z,38.52
2022-10-04T00:12:50.243Z,38.51
2022-10-04T00:21:08.408Z,38.66
2022-10-04T00:25:01.670Z,38.84
2022-10-04T00:49:27.611Z,39.26
2022-10-04T01:19:36.444Z,38.72
2022-10-04T01:31:58.096Z,38.68
2022-10-04T01:35:25.004Z,38.66
2022-10-04T01:38:53.126Z,38.80
2022-10-04T01:42:04.474Z,38.56
2022-10-04T01:45:24.246Z,38.60
2022-10-04T01:48:46.119Z,38.58
2022-10-04T01:52:00.056Z,38.46
2022-10-04T02:22:06.162Z,39.53
2022-10-04T02:25:29.423Z,38.98
2022-10-04T02:28:29.985Z,38.80
2022-10-04T02:32:11.938Z,38.89
2022-10-04T02:35:59.877Z,38.78
2022-10-04T02:39:33.463Z,38.62
2022-10-04T02:43:14.008Z,39.28
2022-10-04T02:46:43.325Z,38.75
2022-10-04T02:50:25.593Z,38.73
2022-10-04T02:54:11.797Z,38.97
2022-10-04T02:57:18.025Z,38.72
2022-10-04T03:00:41.558Z,38.89
2022-10-04T03:03:57.772Z,38.71
2022-10-04T03:07:00.939Z,38.89
2022-10-04T03:10:25.246Z,39.46
2022-10-04T03:13:34.527Z,39.13
2022-10-04T03:16:42.637Z,39.54
2022-10-04T03:20:10.507Z,38.95
2022-10-04T03:23:12.817Z,39.48
2022-10-04T03:26:39.908Z,40.08
2022-10-04T03:30:09.817Z,39.38
2022-10-04T03:33:13.468Z,38.85
2022-10-04T03:36:20.089Z,38.89
2022-10-04T03:39:34.942Z,38.92
2022-10-04T03:42:48.106Z,39.26
2022-10-04T03:45:55.489Z,38.48
2022-10-04T03:49:09.786Z,39.44
2022-10-04T03:52:47.590Z,39.70
2022-10-04T03:55:58.215Z,38.69
2022-10-04T03:59:11.510Z,38.49
2022-10-04T04:02:31.598Z,38.45
2022-10-04T04:05:58.879Z,38.93
2022-10-04T04:09:07.255Z,38.61
2022-10-04T04:12:20.328Z,38.45
2022-10-04T04:15:30.448Z,38.36
2022-10-04T04:18:49.855Z,38.37
2022-10-04T04:21:54.586Z,38.29
2022-10-04T04:25:03.166Z,38.44
2022-10-04T04:28:25.493Z,38.64
2022-10-04T04:32:05.726Z,38.71
2022-10-04T04:35:36.036Z,38.99
2022-10-04T04:39:25.316Z,38.78
2022-10-04T04:42:54.094Z,38.64
2022-10-04T04:46:29.483Z,40.24
2022-10-04T05:03:34.199Z,38.70
2022-10-04T05:06:55.979Z,38.24
2022-10-04T05:10:16.059Z,38.19
2022-10-04T05:21:54.627Z,38.28
2022-10-04T05:31:16.202Z,38.52
2022-10-04T05:35:28.125Z,38.60
2022-10-04T06:06:54.736Z,38.68
2022-10-04T06:22:13.300Z,38.73
2022-10-04T06:27:15.472Z,38.91
2022-10-04T06:36:17.632Z,38.71
2022-10-04T06:40:23.865Z,38.52
2022-10-04T06:44:36.392Z,38.53
2022-10-04T06:48:41.865Z,38.85
2022-10-04T06:56:19.504Z,39.37
2022-10-04T06:59:57.616Z,39.16
2022-10-04T07:03:41.462Z,39.15
2022-10-04T07:07:29.561Z,39.05
2022-10-04T07:11:09.144Z,39.19
2022-10-04T07:14:51.976Z,39.53
2022-10-04T07:18:05.304Z,38.56
2022-10-04T07:21:34.023Z,40.99
2022-10-04T07:29:05.614Z,39.02
2022-10-04T07:32:21.609Z,39.00
2022-10-04T07:36:06.019Z,39.45
2022-10-04T07:39:40.310Z,38.81
2022-10-04T07:42:57.240Z,38.70
2022-10-04T07:46:41.857Z,38.65
2022-10-04T07:49:46.468Z,38.65
2022-10-04T07:53:21.934Z,38.50
2022-10-04T07:57:15.583Z,38.74
2022-10-04T08:00:57.403Z,38.54
2022-10-04T08:04:06.045Z,38.45
2022-10-04T08:07:21.892Z,38.45
2022-10-04T08:10:46.164Z,38.33
2022-10-04T08:14:25.934Z,38.46
2022-10-04T08:17:58.561Z,38.23
2022-10-04T08:21:54.395Z,38.65
2022-10-04T08:25:48.904Z,38.50
2022-10-04T08:39:39.707Z,38.70
2022-10-04T08:47:41.281Z,38.84
2022-10-04T08:52:41.783Z,38.77
2022-10-04T08:56:34.172Z,40.25
2022-10-04T09:00:30.229Z,38.46
2022-10-04T09:03:48.551Z,40.08
2022-10-04T09:07:28.549Z,38.69
2022-10-04T09:10:50.023Z,38.31
2022-10-04T09:13:53.526Z,38.01
2022-10-04T09:17:05.673Z,38.04
2022-10-04T09:20:56.877Z,38.19
2022-10-04T09:24:46.125Z,38.57
2022-10-04T09:28:29.430Z,38.39
2022-10-04T09:31:46.497Z,38.14
2022-10-04T09:45:41.858Z,38.96
2022-10-04T09:49:45.756Z,38.32
2022-10-04T10:11:54.304Z,38.25
2022-10-04T10:16:41.252Z,38.38
2022-10-04T10:20:05.921Z,38.18
2022-10-04T10:23:30.537Z,38.14
2022-10-04T10:27:05.337Z,38.34
2022-10-04T10:30:42.319Z,38.21
2022-10-04T10:34:35.411Z,38.38
2022-10-04T10:39:27.445Z,38.35
2022-10-04T10:47:06.038Z,38.27
2022-10-04T10:50:59.496Z,38.33
2022-10-04T10:54:45.317Z,38.19
2022-10-04T10:58:30.839Z,38.28
2022-10-04T11:02:03.484Z,38.72
2022-10-04T11:06:04.207Z,39.03
2022-10-04T11:10:11.966Z,39.94
2022-10-04T11:14:02.161Z,39.04
2022-10-04T11:18:22.402Z,39.27
2022-10-04T11:22:02.556Z,39.22
2022-10-04T11:25:39.963Z,38.89
2022-10-04T11:29:12.110Z,38.76
2022-10-04T11:32:21.315Z,38.57
2022-10-04T11:35:50.089Z,38.48
2022-10-04T11:39:24.454Z,38.61
2022-10-04T11:42:33.797Z,38.56
2022-10-04T11:46:25.762Z,38.69
2022-10-04T11:49:43.264Z,38.58
2022-10-04T11:53:12.117Z,38.61
2022-10-04T11:56:38.512Z,38.42
2022-10-04T12:00:12.066Z,38.65
2022-10-04T12:03:45.888Z,38.56
2022-10-04T12:12:06.321Z,38.86
2022-10-04T12:19:49.190Z,38.83
2022-10-04T12:23:34.016Z,38.73
2022-10-04T12:27:10.565Z,38.81
2022-10-04T12:30:32.409Z,38.90
2022-10-04T12:33:45.717Z,38.98
2022-10-04T12:37:05.741Z,38.87
2022-10-04T12:40:30.679Z,38.79
2022-10-04T12:44:04.014Z,38.64
2022-10-04T12:47:41.466Z,38.91
2022-10-04T12:50:44.325Z,40.36
2022-10-04T12:54:27.487Z,41.33
2022-10-04T13:27:05.302Z,38.76
2022-10-04T13:30:37.728Z,38.57
2022-10-04T13:34:19.498Z,38.95
2022-10-04T13:37:44.550Z,38.67
2022-10-04T13:41:51.846Z,39.15
2022-10-04T13:45:25.743Z,39.23
2022-10-04T13:48:46.613Z,38.78
2022-10-04T13:52:38.905Z,38.83
2022-10-04T13:56:18.952Z,38.88
2022-10-04T13:59:51.924Z,39.26
2022-10-04T14:07:54.275Z,39.01
2022-10-04T14:11:45.128Z,38.86
2022-10-04T14:15:01.249Z,38.53
2022-10-04T14:18:27.515Z,39.87
2022-10-04T14:22:00.057Z,39.06
2022-10-04T14:25:34.504Z,38.65
2022-10-04T14:29:23.697Z,38.62
2022-10-04T14:33:07.618Z,38.77
2022-10-04T14:36:53.514Z,38.66
2022-10-04T14:40:47.869Z,38.75
2022-10-04T14:44:27.217Z,38.61
2022-10-04T14:48:02.727Z,38.60
2022-10-04T14:51:22.006Z,38.58
2022-10-04T14:54:33.486Z,38.43
2022-10-04T14:58:05.550Z,38.74
2022-10-04T15:01:41.294Z,38.86
2022-10-04T15:04:53.516Z,38.97
2022-10-04T15:08:10.031Z,39.07
2022-10-04T15:11:29.425Z,39.02
2022-10-04T15:14:57.776Z,39.18
2022-10-04T15:18:09.833Z,39.09
2022-10-04T15:21:25.397Z,38.83
2022-10-04T15:24:50.153Z,39.15
2022-10-04T15:28:22.283Z,39.14
2022-10-04T15:31:43.783Z,39.44
2022-10-04T15:35:57.052Z,39.73
2022-10-04T15:39:21.750Z,39.66
2022-10-04T15:42:53.599Z,39.63
2022-10-04T15:46:41.666Z,39.78
2022-10-04T15:50:20.608Z,39.73
2022-10-04T15:53:53.573Z,39.73
2022-10-04T15:57:22.626Z,39.67
2022-10-04T16:01:22.362Z,40.86
2022-10-04T16:04:57.701Z,39.84
2022-10-04T16:08:21.465Z,39.99
2022-10-04T16:12:20.354Z,40.37
2022-10-04T16:15:38.296Z,39.87
2022-10-04T16:19:21.926Z,39.98
2022-10-04T16:22:49.492Z,40.16
2022-10-04T16:26:28.017Z,40.08
2022-10-04T16:30:30.371Z,40.36
2022-10-04T16:33:57.939Z,40.12
2022-10-04T16:37:52.668Z,40.23
2022-10-04T16:41:29.306Z,40.14
2022-10-04T16:45:22.757Z,40.11
2022-10-04T16:49:19.274Z,39.84
2022-10-04T16:52:42.587Z,39.80
2022-10-04T16:56:14.004Z,39.87
2022-10-04T16:59:22.150Z,39.86
2022-10-04T17:03:05.490Z,39.82
2022-10-04T17:06:32.761Z,39.89
2022-10-04T17:10:12.484Z,40.22
2022-10-04T17:13:43.630Z,40.48
2022-10-04T17:17:19.818Z,40.32
2022-10-04T17:20:57.345Z,40.07
2022-10-04T17:24:45.573Z,40.11
2022-10-04T17:28:38.308Z,40.10
2022-10-04T17:32:02.227Z,40.24
2022-10-04T17:35:02.113Z,40.34
2022-10-04T17:39:10.370Z,40.48
2022-10-04T17:46:53.549Z,40.34
2022-10-04T17:50:33.900Z,40.38
2022-10-04T17:54:01.643Z,40.36
2022-10-04T17:57:46.925Z,40.36
2022-10-04T18:01:18.064Z,40.51
2022-10-04T18:04:48.749Z,41.57
2022-10-04T18:12:26.374Z,41.26
2022-10-04T18:16:16.780Z,41.11
2022-10-04T18:19:49.768Z,40.88
2022-10-04T18:23:05.882Z,40.63
2022-10-04T18:26:34.302Z,40.74
2022-10-04T18:29:54.175Z,40.61
2022-10-04T18:33:29.663Z,40.88
2022-10-04T18:36:40.842Z,40.91
2022-10-04T18:39:57.955Z,40.70
2022-10-04T18:43:53.945Z,40.61
2022-10-04T18:47:19.987Z,40.46
2022-10-04T18:50:36.224Z,40.65
2022-10-04T18:54:01.914Z,40.52
2022-10-04T18:57:06.341Z,40.52
2022-10-04T19:00:47.822Z,40.60
2022-10-04T19:03:56.328Z,40.56
2022-10-04T19:07:29.279Z,40.45
2022-10-04T19:11:40.618Z,40.59
2022-10-04T19:15:26.322Z,40.56
2022-10-04T19:19:14.112Z,40.44
2022-10-04T19:32:34.251Z,40.46
2022-10-04T19:45:42.265Z,40.49
2022-10-04T19:49:26.517Z,43.23
2022-10-04T19:52:54.658Z,41.29
2022-10-04T19:56:14.101Z,40.33
2022-10-04T19:59:43.940Z,40.33
2022-10-04T20:03:44.169Z,40.28
2022-10-04T20:06:51.017Z,40.58
2022-10-04T20:27:22.173Z,40.31
2022-10-04T20:31:34.503Z,40.54
2022-10-04T20:35:03.257Z,40.15
2022-10-04T20:39:25.533Z,40.23
2022-10-04T20:44:00.392Z,40.10
2022-10-04T20:52:34.459Z,41.24
2022-10-04T20:56:55.133Z,40.52
2022-10-04T21:22:06.299Z,39.68
2022-10-04T21:30:13.863Z,41.01
2022-10-04T21:43:46.826Z,40.13
2022-10-04T21:55:14.870Z,39.64
2022-10-04T22:54:41.513Z,39.26
2022-10-04T23:08:00.104Z,38.75
2022-10-04T23:20:56.961Z,38.89
2022-10-04T23:24:45.422Z,38.72
2022-10-04T23:28:45.165Z,38.61
2022-10-04T23:32:10.387Z,38.60
2022-10-04T23:40:45.667Z,38.62
2022-10-04T23:53:16.711Z,38.88
